createdAt,value
2022-10-23T00:00:41.587Z,11.80
2022-10-23T00:05:43.256Z,11.80
2022-10-23T00:10:45.271Z,11.90
2022-10-23T00:15:46.964Z,11.90
2022-10-23T00:20:48.587Z,12.00
2022-10-23T00:25:50.715Z,12.00
2022-10-23T00:30:52.502Z,12.00
2022-10-23T00:35:54.174Z,12.00
2022-10-23T00:40:55.825Z,12.00
2022-10-23T00:45:58.270Z,12.00
2022-10-23T00:50:59.915Z,11.90
2022-10-23T00:56:03.145Z,11.90
2022-10-23T01:01:20.894Z,11.90
2022-10-23T01:06:37.891Z,11.90
2022-10-23T01:11:45.953Z,11.90
2022-10-23T01:16:50.318Z,11.90
2022-10-23T01:22:10.109Z,12.00
2022-10-23T01:27:31.337Z,11.90
2022-10-23T01:32:45.339Z,11.90
2022-10-23T01:37:53.330Z,11.90
2022-10-23T01:43:01.382Z,11.90
2022-10-23T01:48:04.456Z,12.00
2022-10-23T01:53:06.267Z,12.00
2022-10-23T01:58:09.000Z,12.00
2022-10-23T02:03:13.144Z,12.00
2022-10-23T02:08:14.980Z,12.10
2022-10-23T02:13:30.719Z,12.10
2022-10-23T02:18:49.010Z,12.10
2022-10-23T02:24:06.641Z,12.00
2022-10-23T02:29:29.753Z,12.00
2022-10-23T02:34:31.686Z,12.00
2022-10-23T02:39:33.439Z,12.00
2022-10-23T02:44:55.902Z,12.20
2022-10-23T02:50:36.025Z,12.30
2022-10-23T02:55:47.767Z,12.30
2022-10-23T03:00:54.708Z,12.40
2022-10-23T03:05:56.459Z,12.50
2022-10-23T03:10:58.221Z,12.40
2022-10-23T03:15:59.844Z,12.30
2022-10-23T03:21:01.501Z,12.20
2022-10-23T03:26:03.226Z,12.00
2022-10-23T03:31:05.198Z,11.90
2022-10-23T03:36:07.194Z,11.80
2022-10-23T03:41:08.845Z,11.70
2022-10-23T03:46:12.838Z,11.60
2022-10-23T03:51:14.706Z,11.60
2022-10-23T03:56:16.602Z,11.50
2022-10-23T04:01:18.346Z,11.50
2022-10-23T04:06:19.980Z,11.50
2022-10-23T04:11:21.773Z,11.40
2022-10-23T04:16:24.410Z,11.40
2022-10-23T04:21:26.047Z,11.30
2022-10-23T04:26:27.692Z,11.30
2022-10-23T04:31:29.421Z,11.20
2022-10-23T04:36:31.168Z,11.20
2022-10-23T04:41:32.835Z,11.20
2022-10-23T04:46:34.513Z,11.10
2022-10-23T04:51:38.148Z,11.10
2022-10-23T04:56:39.770Z,11.10
2022-10-23T05:01:41.401Z,11.20
2022-10-23T05:06:43.102Z,11.20
2022-10-23T05:11:44.709Z,11.20
2022-10-23T05:17:00.745Z,11.20
2022-10-23T05:22:03.789Z,11.20
2022-10-23T05:27:05.483Z,11.20
2022-10-23T05:32:10.387Z,11.20
2022-10-23T05:37:15.783Z,11.20
2022-10-23T05:42:17.447Z,11.20
2022-10-23T05:47:19.139Z,11.10
2022-10-23T05:52:20.886Z,11.10
2022-10-23T05:57:22.608Z,11.20
2022-10-23T06:02:24.474Z,11.20
2022-10-23T06:07:29.245Z,11.20
2022-10-23T06:12:33.441Z,11.20
2022-10-23T06:17:35.152Z,11.30
2022-10-23T06:22:36.835Z,11.30
2022-10-23T06:27:38.468Z,11.40
2022-10-23T06:32:40.248Z,11.40
2022-10-23T06:37:42.093Z,11.50
2022-10-23T06:42:44.007Z,11.60
2022-10-23T06:47:46.052Z,11.70
2022-10-23T06:52:48.109Z,11.80
2022-10-23T06:57:49.811Z,12.00
2022-10-23T07:02:52.317Z,12.10
2022-10-23T07:07:53.960Z,12.30
2022-10-23T07:13:00.646Z,12.50
2022-10-23T07:18:02.359Z,12.70
2022-10-23T07:23:04.002Z,12.90
2022-10-23T07:28:05.753Z,13.10
2022-10-23T07:33:08.087Z,13.40
2022-10-23T07:38:09.702Z,13.60
2022-10-23T07:43:11.348Z,13.70
2022-10-23T07:48:13.047Z,13.80
2022-10-23T07:53:18.930Z,13.70
2022-10-23T07:58:20.964Z,13.60
2022-10-23T08:03:22.674Z,13.70
2022-10-23T08:08:25.595Z,13.90
2022-10-23T08:13:27.296Z,14.20
2022-10-23T08:18:29.203Z,14.40
2022-10-23T08:23:30.924Z,14.50
2022-10-23T08:28:33.098Z,14.70
2022-10-23T08:33:34.798Z,14.70
2022-10-23T08:38:36.573Z,14.80
2022-10-23T08:43:43.766Z,15.00
2022-10-23T08:48:51.147Z,15.20
2022-10-23T08:54:00.183Z,15.40
2022-10-23T08:59:05.393Z,15.60
2022-10-23T09:04:09.824Z,15.80
2022-10-23T09:09:20.044Z,16.10
2022-10-23T09:14:30.518Z,16.40
2022-10-23T09:19:32.252Z,16.50
2022-10-23T09:24:34.019Z,16.60
2022-10-23T09:29:36.184Z,16.60
2022-10-23T09:34:37.884Z,16.90
2022-10-23T09:39:39.563Z,17.00
2022-10-23T09:44:49.869Z,17.00
2022-10-23T09:49:54.081Z,17.00
2022-10-23T09:54:58.209Z,17.20
2022-10-23T10:00:14.618Z,17.30
2022-10-23T10:05:27.827Z,17.30
2022-10-23T10:10:35.845Z,17.30
2022-10-23T10:15:52.900Z,17.20
2022-10-23T10:21:20.054Z,17.10
2022-10-23T10:26:44.568Z,17.10
2022-10-23T10:32:13.735Z,17.10
2022-10-23T10:37:27.621Z,17.00
2022-10-23T10:42:42.699Z,16.90
2022-10-23T10:48:01.798Z,16.90
2022-10-23T10:53:26.213Z,17.10
2022-10-23T10:58:33.725Z,17.30
2022-10-23T11:03:52.164Z,17.30
2022-10-23T11:09:09.194Z,17.50
2022-10-23T11:14:29.116Z,17.50
2022-10-23T11:19:53.343Z,17.80
2022-10-23T11:25:12.157Z,18.10
2022-10-23T11:30:29.597Z,18.30
2022-10-23T11:35:53.751Z,18.50
2022-10-23T11:40:59.403Z,18.80
2022-10-23T11:46:14.780Z,18.90
2022-10-23T11:51:33.191Z,19.10
2022-10-23T11:56:34.925Z,19.30
2022-10-23T12:01:46.271Z,19.40
2022-10-23T12:06:55.467Z,19.50
2022-10-23T12:12:12.877Z,19.40
2022-10-23T12:17:23.812Z,19.60
2022-10-23T12:27:58.561Z,20.30
2022-10-23T12:33:37.206Z,20.40
2022-10-23T12:38:46.415Z,20.20
2022-10-23T12:43:55.893Z,20.40
2022-10-23T12:48:58.833Z,20.60
2022-10-23T12:54:02.107Z,20.70
2022-10-23T12:59:10.543Z,20.70
2022-10-23T13:04:32.007Z,20.60
2022-10-23T13:09:41.827Z,20.50
2022-10-23T13:14:57.151Z,20.40
2022-10-23T13:20:09.636Z,20.40
2022-10-23T13:25:33.181Z,20.40
2022-10-23T13:30:38.346Z,20.30
2022-10-23T13:35:40.195Z,20.30
2022-10-23T13:40:41.950Z,20.30
2022-10-23T13:45:43.714Z,20.20
2022-10-23T13:50:45.534Z,20.00
2022-10-23T13:55:53.657Z,19.80
2022-10-23T14:00:58.615Z,19.60
2022-10-23T14:06:01.487Z,19.60
2022-10-23T14:11:03.293Z,19.50
2022-10-23T14:16:06.129Z,19.50
2022-10-23T14:21:10.432Z,19.40
2022-10-23T14:26:15.316Z,19.30
2022-10-23T14:31:18.579Z,19.20
2022-10-23T14:36:20.346Z,19.10
2022-10-23T14:41:22.030Z,19.00
2022-10-23T14:46:24.675Z,18.90
2022-10-23T14:51:28.654Z,18.80
2022-10-23T14:56:32.894Z,18.60
2022-10-23T15:01:41.245Z,18.50
2022-10-23T15:06:47.225Z,18.40
2022-10-23T15:11:49.002Z,18.40
2022-10-23T15:16:50.628Z,18.20
2022-10-23T15:21:52.551Z,18.10
2022-10-23T15:26:54.313Z,18.10
2022-10-23T15:31:58.597Z,18.00
2022-10-23T15:37:00.304Z,18.10
2022-10-23T15:42:05.569Z,18.00
2022-10-23T15:47:07.487Z,17.90
2022-10-23T15:57:16.799Z,17.80
2022-10-23T16:02:18.585Z,17.80
2022-10-23T16:07:20.425Z,17.70
2022-10-23T16:12:22.066Z,17.70
2022-10-23T16:17:24.250Z,17.70
2022-10-23T16:22:27.033Z,17.70
2022-10-23T16:27:28.756Z,17.60
2022-10-23T16:32:30.918Z,17.60
2022-10-23T16:37:33.283Z,17.50
2022-10-23T16:42:35.013Z,17.40
2022-10-23T16:47:36.624Z,17.10
2022-10-23T16:52:38.306Z,16.90
2022-10-23T16:57:39.967Z,16.80
2022-10-23T17:02:41.719Z,16.70
2022-10-23T17:07:43.798Z,16.70
2022-10-23T17:12:45.703Z,16.60
2022-10-23T17:17:47.352Z,16.40
2022-10-23T17:22:49.008Z,16.30
2022-10-23T17:27:50.649Z,16.00
2022-10-23T17:32:52.327Z,15.80
2022-10-23T17:37:55.407Z,15.90
2022-10-23T17:42:57.352Z,15.80
2022-10-23T17:47:58.996Z,16.00
2022-10-23T17:53:00.636Z,15.90
2022-10-23T17:58:02.302Z,15.80
2022-10-23T18:03:04.618Z,15.70
2022-10-23T18:08:06.270Z,15.80
2022-10-23T18:13:07.911Z,15.70
2022-10-23T18:18:09.527Z,15.40
2022-10-23T18:23:11.136Z,15.20
2022-10-23T18:28:12.796Z,15.20
2022-10-23T18:33:15.637Z,15.20
2022-10-23T18:38:17.265Z,15.40
2022-10-23T18:43:31.316Z,15.50
2022-10-23T18:48:41.843Z,15.70
2022-10-23T18:53:46.647Z,16.10
2022-10-23T18:58:50.201Z,16.10
2022-10-23T19:03:51.874Z,16.20
2022-10-23T19:08:53.954Z,16.20
2022-10-23T19:13:55.756Z,16.30
2022-10-23T19:19:01.283Z,16.30
2022-10-23T19:24:07.025Z,16.40
2022-10-23T19:29:12.609Z,16.40
2022-10-23T19:34:14.891Z,16.40
2022-10-23T19:39:16.887Z,16.40
2022-10-23T19:44:19.770Z,16.40
2022-10-23T19:49:23.735Z,16.40
2022-10-23T19:54:25.505Z,16.40
2022-10-23T19:59:27.192Z,16.40
2022-10-23T20:04:29.371Z,16.30
2022-10-23T20:09:31.198Z,16.20
2022-10-23T20:14:33.006Z,16.10
2022-10-23T20:19:35.014Z,16.10
2022-10-23T20:24:36.659Z,16.20
2022-10-23T20:29:38.394Z,16.00
2022-10-23T20:34:40.176Z,16.20
2022-10-23T20:39:42.905Z,16.30
2022-10-23T20:44:44.609Z,16.30
2022-10-23T20:49:47.750Z,16.20
2022-10-23T20:54:49.452Z,16.20
2022-10-23T20:59:52.764Z,16.10
2022-10-23T21:04:54.460Z,16.00
2022-10-23T21:09:56.167Z,16.00
2022-10-23T21:14:58.150Z,15.90
2022-10-23T21:19:59.871Z,15.70
2022-10-23T21:25:01.695Z,15.70
2022-10-23T21:30:06.132Z,15.60
2022-10-23T21:35:08.766Z,15.50
2022-10-23T21:40:11.188Z,15.50
2022-10-23T21:45:12.841Z,15.40
2022-10-23T21:50:14.513Z,15.40
2022-10-23T21:55:16.270Z,15.40
2022-10-23T22:00:18.097Z,15.40
2022-10-23T22:05:19.774Z,15.30
2022-10-23T22:10:21.417Z,15.30
2022-10-23T22:15:23.126Z,15.30
2022-10-23T22:20:24.891Z,15.20
2022-10-23T22:25:26.516Z,15.10
2022-10-23T22:30:28.159Z,15.10
2022-10-23T22:35:30.708Z,15.10
2022-10-23T22:40:35.710Z,15.10
2022-10-23T22:45:37.473Z,15.00
2022-10-23T22:50:39.101Z,15.00
2022-10-23T22:55:43.639Z,14.90
2022-10-23T23:00:45.827Z,14.80
2022-10-23T23:05:48.362Z,14.70
2022-10-23T23:10:54.535Z,14.50
2022-10-23T23:15:56.840Z,14.40
2022-10-23T23:21:05.486Z,14.30
2022-10-23T23:26:07.381Z,14.20
2022-10-23T23:31:21.811Z,14.20
2022-10-23T23:36:26.591Z,14.20
2022-10-23T23:41:29.203Z,14.20
2022-10-23T23:46:30.804Z,14.10
2022-10-23T23:51:32.439Z,14.10
2022-10-23T23:56:34.072Z,14.00
